createdAt,value
2018-12-17T00:00:35.558Z,170.60
2018-12-17T00:03:05.931Z,159.07
2018-12-17T00:05:34.528Z,228.17
2018-12-17T00:08:04.697Z,196.33
2018-12-17T00:10:35.759Z,170.13
2018-12-17T00:13:05.101Z,311.27
2018-12-17T00:15:34.806Z,318.50
2018-12-17T00:18:03.612Z,178.43
2018-12-17T00:20:32.212Z,212.60
2018-12-17T00:23:01.118Z,234.03
2018-12-17T00:25:30.838Z,159.33
2018-12-17T00:27:59.658Z,154.17
2018-12-17T00:30:28.641Z,195.47
2018-12-17T00:32:58.234Z,280.20
2018-12-17T00:35:26.956Z,197.30
2018-12-17T00:37:56.434Z,214.90
2018-12-17T00:45:16.333Z,188.23
2018-12-17T00:47:45.205Z,170.07
2018-12-17T00:50:15.451Z,161.77
2018-12-17T00:52:45.488Z,177.07
2018-12-17T00:55:16.598Z,362.33
2018-12-17T00:57:46.110Z,155.63
2018-12-17T01:00:17.470Z,191.83
2018-12-17T01:02:48.694Z,129.90
2018-12-17T01:05:19.637Z,147.03
2018-12-17T01:07:49.815Z,191.57
2018-12-17T01:10:18.652Z,152.43
2018-12-17T01:12:49.443Z,213.70
2018-12-17T01:15:19.599Z,153.83
2018-12-17T01:17:49.346Z,326.93
2018-12-17T01:20:19.726Z,155.10
2018-12-17T01:22:49.166Z,122.20
2018-12-17T01:25:19.076Z,194.23
2018-12-17T01:27:48.022Z,187.10
2018-12-17T01:30:18.692Z,165.70
2018-12-17T01:32:49.891Z,187.10
2018-12-17T01:35:20.644Z,201.60
2018-12-17T01:37:51.722Z,239.90
2018-12-17T01:40:24.030Z,160.83
2018-12-17T01:42:54.333Z,157.77
2018-12-17T01:45:25.554Z,263.33
2018-12-17T01:47:56.171Z,132.43
2018-12-17T01:50:25.694Z,109.87
2018-12-17T01:52:56.608Z,100.10
2018-12-17T01:55:27.107Z,140.83
2018-12-17T01:57:57.630Z,185.27
2018-12-17T02:00:27.846Z,280.23
2018-12-17T02:02:59.458Z,155.63
2018-12-17T02:05:29.429Z,191.10
2018-12-17T02:07:58.232Z,205.17
2018-12-17T02:10:27.991Z,243.00
2018-12-17T02:12:56.438Z,328.57
2018-12-17T02:15:25.138Z,300.13
2018-12-17T02:18:00.579Z,273.77
2018-12-17T02:20:32.341Z,173.73
2018-12-17T02:23:02.678Z,176.47
2018-12-17T02:25:32.638Z,134.30
2018-12-17T02:28:01.521Z,188.87
2018-12-17T02:30:31.148Z,158.80
2018-12-17T02:33:00.891Z,192.87
2018-12-17T02:35:30.217Z,204.20
2018-12-17T02:37:59.521Z,111.67
2018-12-17T02:40:32.073Z,146.43
2018-12-17T02:43:00.982Z,112.40
2018-12-17T02:45:30.476Z,223.40
2018-12-17T02:47:59.959Z,146.10
2018-12-17T02:50:29.255Z,148.90
2018-12-17T02:52:59.153Z,322.03
2018-12-17T02:55:27.949Z,151.10
2018-12-17T02:58:08.326Z,194.80
2018-12-17T03:00:55.374Z,182.83
2018-12-17T03:03:29.423Z,156.13
2018-12-17T03:05:59.028Z,237.50
2018-12-17T03:08:34.688Z,209.33
2018-12-17T03:11:07.206Z,311.20
2018-12-17T03:13:45.663Z,153.77
2018-12-17T03:16:21.889Z,240.60
2018-12-17T03:18:59.195Z,157.03
2018-12-17T03:21:33.601Z,264.53
2018-12-17T03:24:03.694Z,152.63
2018-12-17T03:26:37.623Z,164.27
2018-12-17T03:29:06.449Z,178.27
2018-12-17T03:31:34.958Z,208.57
2018-12-17T03:34:03.889Z,156.07
2018-12-17T03:36:46.366Z,144.67
2018-12-17T03:39:18.072Z,127.23
2018-12-17T03:41:46.855Z,135.13
2018-12-17T03:44:15.869Z,193.17
2018-12-17T03:46:46.552Z,119.37
2018-12-17T03:49:17.527Z,260.83
2018-12-17T03:51:51.982Z,138.03
2018-12-17T03:54:23.861Z,205.67
2018-12-17T03:56:54.225Z,215.57
2018-12-17T03:59:25.181Z,328.23
2018-12-17T04:01:55.697Z,285.90
2018-12-17T04:04:25.735Z,139.17
2018-12-17T04:06:57.395Z,124.13
2018-12-17T04:09:28.689Z,177.20
2018-12-17T04:11:59.298Z,178.90
2018-12-17T04:14:29.367Z,138.47
2018-12-17T04:16:59.221Z,235.83
2018-12-17T04:19:28.778Z,290.00
2018-12-17T04:21:57.266Z,204.90
2018-12-17T04:24:27.468Z,236.40
2018-12-17T04:26:59.043Z,214.83
2018-12-17T04:29:27.490Z,166.77
2018-12-17T04:31:57.486Z,258.57
2018-12-17T04:34:28.817Z,257.60
2018-12-17T04:36:58.666Z,235.30
2018-12-17T04:39:29.803Z,171.83
2018-12-17T04:41:58.642Z,314.00
2018-12-17T04:44:27.094Z,368.20
2018-12-17T04:46:55.562Z,214.53
2018-12-17T04:49:25.874Z,253.93
2018-12-17T04:51:56.549Z,443.30
2018-12-17T04:54:26.220Z,421.73
2018-12-17T04:56:55.538Z,160.00
2018-12-17T04:59:25.517Z,268.93
2018-12-17T05:01:57.475Z,239.40
2018-12-17T05:04:29.189Z,261.13
2018-12-17T05:06:59.112Z,225.47
2018-12-17T05:09:28.136Z,193.67
2018-12-17T05:11:59.094Z,468.70
2018-12-17T05:14:29.570Z,131.80
2018-12-17T05:17:00.332Z,225.67
2018-12-17T05:19:30.801Z,219.27
2018-12-17T05:22:01.439Z,248.50
2018-12-17T05:24:32.238Z,376.33
2018-12-17T05:27:01.895Z,284.60
2018-12-17T05:29:32.800Z,260.50
2018-12-17T05:32:01.931Z,356.60
2018-12-17T05:34:31.414Z,296.47
2018-12-17T05:37:01.178Z,178.27
2018-12-17T05:39:33.174Z,203.00
2018-12-17T05:42:03.598Z,363.13
2018-12-17T05:44:33.583Z,268.57
2018-12-17T05:47:04.725Z,171.80
2018-12-17T05:49:35.657Z,299.03
2018-12-17T05:52:07.083Z,186.60
2018-12-17T05:54:37.457Z,251.83
2018-12-17T05:57:06.303Z,269.70
2018-12-17T05:59:37.243Z,223.10
2018-12-17T06:02:07.286Z,331.37
2018-12-17T06:04:37.625Z,294.13
2018-12-17T06:07:09.755Z,240.57
2018-12-17T06:09:40.043Z,277.57
2018-12-17T06:12:10.245Z,297.87
2018-12-17T06:14:40.749Z,309.17
2018-12-17T06:17:11.022Z,299.63
2018-12-17T06:19:41.974Z,307.40
2018-12-17T06:22:11.346Z,173.80
2018-12-17T06:24:43.909Z,187.60
2018-12-17T06:27:15.207Z,229.60
2018-12-17T06:29:44.510Z,364.33
2018-12-17T06:32:16.005Z,322.30
2018-12-17T06:34:48.315Z,181.97
2018-12-17T06:37:19.522Z,195.37
2018-12-17T06:39:49.075Z,271.20
2018-12-17T06:42:18.774Z,365.63
2018-12-17T06:44:50.179Z,244.80
2018-12-17T06:47:21.412Z,322.17
2018-12-17T06:49:51.884Z,244.87
2018-12-17T06:52:24.425Z,239.47
2018-12-17T06:54:55.313Z,271.97
2018-12-17T06:57:25.272Z,309.43
2018-12-17T06:59:57.607Z,260.67
2018-12-17T07:02:29.775Z,208.77
2018-12-17T07:04:59.735Z,286.43
2018-12-17T07:07:30.487Z,411.63
2018-12-17T07:10:02.802Z,355.40
2018-12-17T07:12:34.744Z,225.00
2018-12-17T07:15:05.638Z,302.50
2018-12-17T07:17:41.905Z,239.97
2018-12-17T07:20:22.460Z,272.23
2018-12-17T07:22:57.310Z,266.07
2018-12-17T07:25:33.246Z,235.47
2018-12-17T07:28:07.485Z,227.57
2018-12-17T07:30:43.310Z,346.83
2018-12-17T07:33:17.883Z,241.30
2018-12-17T07:35:55.282Z,316.23
2018-12-17T07:38:34.884Z,374.60
2018-12-17T07:41:05.194Z,239.97
2018-12-17T07:43:38.176Z,261.13
2018-12-17T07:46:10.270Z,200.03
2018-12-17T07:48:54.601Z,225.93
2018-12-17T07:51:24.697Z,276.20
2018-12-17T07:53:59.595Z,201.33
2018-12-17T07:56:29.738Z,254.57
2018-12-17T07:59:02.227Z,367.10
2018-12-17T08:01:31.934Z,197.83
2018-12-17T08:04:06.482Z,190.50
2018-12-17T08:06:36.001Z,186.30
2018-12-17T08:09:14.082Z,212.17
2018-12-17T08:11:43.292Z,214.73
2018-12-17T08:14:12.445Z,252.13
2018-12-17T08:16:41.555Z,159.00
2018-12-17T08:19:10.170Z,221.97
2018-12-17T08:21:39.360Z,225.57
2018-12-17T08:24:10.391Z,130.33
2018-12-17T08:26:44.530Z,135.53
2018-12-17T08:29:15.941Z,118.23
2018-12-17T08:31:48.270Z,111.53
2018-12-17T08:34:22.065Z,119.97
2018-12-17T08:36:55.012Z,139.73
2018-12-17T08:39:24.271Z,131.40
2018-12-17T08:44:34.915Z,167.97
2018-12-17T08:47:10.885Z,165.30
2018-12-17T08:49:49.051Z,269.60
2018-12-17T08:52:25.490Z,271.70
2018-12-17T08:55:05.670Z,203.33
2018-12-17T08:57:42.531Z,294.10
2018-12-17T09:00:23.085Z,294.07
2018-12-17T09:03:04.181Z,302.27
2018-12-17T09:05:41.011Z,228.47
2018-12-17T09:08:22.901Z,233.53
2018-12-17T09:11:02.947Z,182.27
2018-12-17T09:13:36.918Z,194.00
2018-12-17T09:16:17.998Z,172.90
2018-12-17T09:18:58.085Z,179.13
2018-12-17T09:21:36.515Z,135.67
2018-12-17T09:24:15.979Z,197.73
2018-12-17T09:26:53.620Z,139.73
2018-12-17T09:29:32.361Z,143.53
2018-12-17T09:32:12.876Z,130.67
2018-12-17T09:34:53.505Z,131.80
2018-12-17T09:37:33.906Z,128.23
2018-12-17T09:40:18.704Z,115.77
2018-12-17T09:42:59.646Z,99.20
2018-12-17T09:45:36.662Z,80.90
2018-12-17T09:48:06.510Z,73.40
2018-12-17T09:50:48.076Z,79.63
2018-12-17T09:53:24.007Z,64.07
2018-12-17T09:55:53.789Z,69.13
2018-12-17T09:58:33.159Z,74.80
2018-12-17T10:01:13.511Z,73.33
2018-12-17T10:03:50.916Z,78.97
2018-12-17T10:06:27.436Z,68.30
2018-12-17T10:09:08.318Z,79.03
2018-12-17T10:11:44.015Z,71.90
2018-12-17T10:14:20.569Z,68.60
2018-12-17T10:16:59.519Z,62.20
2018-12-17T10:19:40.221Z,65.93
2018-12-17T10:22:18.861Z,68.27
2018-12-17T10:24:57.025Z,62.60
2018-12-17T10:27:35.127Z,74.17
2018-12-17T10:30:14.652Z,67.27
2018-12-17T10:32:52.135Z,66.93
2018-12-17T10:35:21.882Z,82.57
2018-12-17T10:38:01.239Z,63.73
2018-12-17T10:40:39.411Z,73.93
2018-12-17T10:43:08.583Z,63.63
2018-12-17T10:45:50.491Z,74.37
2018-12-17T10:48:19.227Z,70.27
2018-12-17T10:50:55.740Z,84.83
2018-12-17T10:53:34.584Z,60.80
2018-12-17T10:56:09.964Z,72.03
2018-12-17T10:58:41.263Z,64.47
2018-12-17T11:01:22.831Z,59.73
2018-12-17T11:04:07.610Z,52.43
2018-12-17T11:06:48.321Z,65.33
2018-12-17T11:09:25.796Z,69.23
2018-12-17T11:12:04.430Z,56.90
2018-12-17T11:14:44.183Z,53.93
2018-12-17T11:17:19.906Z,55.30
2018-12-17T11:19:56.171Z,53.37
2018-12-17T11:22:34.273Z,59.37
2018-12-17T11:25:09.780Z,56.17
2018-12-17T11:27:47.963Z,57.90
2018-12-17T11:30:26.881Z,59.53
2018-12-17T11:33:04.811Z,58.70
2018-12-17T11:35:43.592Z,60.47
2018-12-17T11:38:22.178Z,54.47
2018-12-17T11:41:01.339Z,56.90
2018-12-17T11:43:43.627Z,56.17
2018-12-17T11:46:11.302Z,56.17
2018-12-17T11:48:49.978Z,55.50
2018-12-17T11:51:19.034Z,57.03
2018-12-17T11:53:56.977Z,51.23
2018-12-17T11:56:49.658Z,54.60
2018-12-17T11:59:28.366Z,56.47
2018-12-17T12:02:09.404Z,56.40
2018-12-17T12:04:45.667Z,48.57
2018-12-17T12:07:23.998Z,56.93
2018-12-17T12:09:52.472Z,55.90
2018-12-17T12:12:30.583Z,61.27
2018-12-17T12:15:11.090Z,53.90
2018-12-17T12:17:51.388Z,55.20
2018-12-17T12:20:33.583Z,53.97
2018-12-17T12:23:11.539Z,49.63
2018-12-17T12:25:49.825Z,50.23
2018-12-17T12:28:30.510Z,46.37
2018-12-17T12:31:09.272Z,46.87
2018-12-17T12:33:46.433Z,42.00
2018-12-17T12:36:20.234Z,41.57
2018-12-17T12:38:55.902Z,39.53
2018-12-17T12:41:34.822Z,39.00
2018-12-17T12:44:11.523Z,38.73
2018-12-17T12:46:50.777Z,36.80
2018-12-17T12:49:32.085Z,40.40
2018-12-17T12:52:09.265Z,39.43
2018-12-17T12:54:48.254Z,38.63
2018-12-17T12:57:27.049Z,38.17
2018-12-17T13:00:07.850Z,38.80
2018-12-17T13:02:45.287Z,36.43
2018-12-17T13:05:20.612Z,37.57
2018-12-17T13:07:58.294Z,38.27
2018-12-17T13:10:34.982Z,35.37
2018-12-17T13:13:13.074Z,38.80
2018-12-17T13:15:51.270Z,36.83
2018-12-17T13:18:25.844Z,35.67
2018-12-17T13:21:03.795Z,34.77
2018-12-17T13:23:39.999Z,32.60
2018-12-17T13:26:14.094Z,35.73
2018-12-17T13:28:54.510Z,33.37
2018-12-17T13:31:31.100Z,30.93
2018-12-17T13:34:11.874Z,38.17
2018-12-17T13:36:49.276Z,33.33
2018-12-17T13:39:28.483Z,36.93
2018-12-17T13:42:04.881Z,34.30
2018-12-17T13:44:46.550Z,32.93
2018-12-17T13:47:25.977Z,33.80
2018-12-17T13:50:10.385Z,34.33
2018-12-17T13:52:48.322Z,32.90
2018-12-17T13:55:24.458Z,34.13
2018-12-17T13:58:03.866Z,30.83
2018-12-17T14:00:42.016Z,36.27
2018-12-17T14:03:22.383Z,34.87
2018-12-17T14:06:00.205Z,36.30
2018-12-17T14:08:34.321Z,31.50
2018-12-17T14:11:03.722Z,33.80
2018-12-17T14:13:40.479Z,35.77
2018-12-17T14:16:16.829Z,36.30
2018-12-17T14:18:59.933Z,32.53
2018-12-17T14:21:39.214Z,36.27
2018-12-17T14:24:13.038Z,37.20
2018-12-17T14:26:47.232Z,40.43
2018-12-17T14:29:23.340Z,36.57
2018-12-17T14:32:03.365Z,39.07
2018-12-17T14:34:41.608Z,35.93
2018-12-17T14:37:20.794Z,32.93
2018-12-17T14:39:58.604Z,36.00
2018-12-17T14:42:43.917Z,38.03
2018-12-17T14:45:26.333Z,33.70
2018-12-17T14:48:08.049Z,36.67
2018-12-17T14:50:46.408Z,36.60
2018-12-17T14:53:27.118Z,35.83
2018-12-17T14:56:07.988Z,32.93
2018-12-17T14:58:48.832Z,32.43
2018-12-17T15:01:36.016Z,35.17
2018-12-17T15:04:12.214Z,34.00
2018-12-17T15:06:55.280Z,35.73
2018-12-17T15:09:32.536Z,39.63
2018-12-17T15:12:07.597Z,43.43
2018-12-17T15:14:42.313Z,41.87
2018-12-17T15:17:20.919Z,32.10
2018-12-17T15:19:59.770Z,36.00
2018-12-17T15:22:34.234Z,37.97
2018-12-17T15:25:11.982Z,35.70
2018-12-17T15:27:50.946Z,34.97
2018-12-17T15:30:32.112Z,35.10
2018-12-17T15:33:10.407Z,33.90
2018-12-17T15:35:51.617Z,32.80
2018-12-17T15:38:30.235Z,32.80
2018-12-17T15:41:04.826Z,35.30
2018-12-17T15:43:51.870Z,32.80
2018-12-17T15:46:29.988Z,35.13
2018-12-17T15:49:05.170Z,38.47
2018-12-17T15:51:44.432Z,33.50
2018-12-17T15:54:19.211Z,32.70
2018-12-17T15:57:01.764Z,36.93
2018-12-17T15:59:41.727Z,37.33
2018-12-17T16:02:14.162Z,41.70
2018-12-17T16:04:55.511Z,36.07
2018-12-17T16:07:33.907Z,36.80
2018-12-17T16:10:11.638Z,36.67
2018-12-17T16:12:52.794Z,44.00
2018-12-17T16:15:36.667Z,40.07
2018-12-17T16:18:17.938Z,37.20
2018-12-17T16:20:57.269Z,37.13
2018-12-17T16:23:37.878Z,40.30
2018-12-17T16:26:17.794Z,37.47
2018-12-17T16:28:56.035Z,36.70
2018-12-17T16:31:34.623Z,38.67
2018-12-17T16:34:13.611Z,32.73
2018-12-17T16:36:51.650Z,33.37
2018-12-17T16:39:31.195Z,35.20
2018-12-17T16:42:08.310Z,31.83
2018-12-17T16:44:37.554Z,36.07
2018-12-17T16:47:16.649Z,36.10
2018-12-17T16:49:56.169Z,38.57
2018-12-17T16:52:32.275Z,37.33
2018-12-17T16:55:12.774Z,37.97
2018-12-17T16:57:51.381Z,37.37
2018-12-17T17:00:29.206Z,40.43
2018-12-17T17:03:10.324Z,49.87
2018-12-17T17:08:39.048Z,47.77
2018-12-17T17:11:22.011Z,41.30
2018-12-17T17:14:02.357Z,42.07
2018-12-17T17:16:40.560Z,46.07
2018-12-17T17:22:26.896Z,41.10
2018-12-17T17:25:09.799Z,35.37
2018-12-17T17:27:44.484Z,36.10
2018-12-17T17:30:24.484Z,32.87
2018-12-17T17:33:04.713Z,39.70
2018-12-17T17:35:41.457Z,38.90
2018-12-17T17:38:18.163Z,31.97
2018-12-17T17:40:58.558Z,39.07
2018-12-17T17:43:38.210Z,38.07
2018-12-17T17:46:13.890Z,35.53
2018-12-17T17:48:49.972Z,37.63
2018-12-17T17:51:29.757Z,36.63
2018-12-17T17:54:11.298Z,37.57
2018-12-17T17:56:42.465Z,33.80
2018-12-17T17:59:30.672Z,42.73
2018-12-17T18:02:07.366Z,38.37
2018-12-17T18:04:48.927Z,38.70
2018-12-17T18:07:25.933Z,39.67
2018-12-17T18:10:01.884Z,39.77
2018-12-17T18:12:41.379Z,40.93
2018-12-17T18:15:21.124Z,41.67
2018-12-17T18:17:55.830Z,39.77
2018-12-17T18:20:31.036Z,41.17
2018-12-17T18:23:07.919Z,42.73
2018-12-17T18:25:47.175Z,40.77
2018-12-17T18:28:25.618Z,41.80
2018-12-17T18:31:04.328Z,44.83
2018-12-17T18:33:43.500Z,38.23
2018-12-17T18:36:18.318Z,42.83
2018-12-17T18:38:54.760Z,44.60
2018-12-17T18:41:33.092Z,45.33
2018-12-17T18:44:05.494Z,43.23
2018-12-17T18:46:42.005Z,43.70
2018-12-17T18:49:20.101Z,49.57
2018-12-17T18:51:56.694Z,44.27
2018-12-17T18:54:35.266Z,42.73
2018-12-17T18:57:18.488Z,43.17
2018-12-17T18:59:53.619Z,45.77
2018-12-17T19:02:33.195Z,43.80
2018-12-17T19:05:07.664Z,47.90
2018-12-17T19:07:42.217Z,44.07
2018-12-17T19:10:29.523Z,45.57
2018-12-17T19:13:09.370Z,38.03
2018-12-17T19:15:44.201Z,42.57
2018-12-17T19:18:23.082Z,46.03
2018-12-17T19:20:57.946Z,47.20
2018-12-17T19:23:35.134Z,43.43
2018-12-17T19:26:11.562Z,37.13
2018-12-17T19:28:50.094Z,44.30
2018-12-17T19:31:34.367Z,45.50
2018-12-17T19:34:08.714Z,41.47
2018-12-17T19:36:45.831Z,38.13
2018-12-17T19:39:22.337Z,38.87
2018-12-17T19:42:00.572Z,39.13
2018-12-17T19:44:39.145Z,40.00
2018-12-17T19:47:16.940Z,41.87
2018-12-17T19:49:48.669Z,40.77
2018-12-17T19:52:27.610Z,39.07
2018-12-17T19:55:06.062Z,42.27
2018-12-17T19:57:44.092Z,37.83
2018-12-17T20:00:22.479Z,34.70
2018-12-17T20:03:01.241Z,35.03
2018-12-17T20:05:40.842Z,32.97
2018-12-17T20:08:19.462Z,35.47
2018-12-17T20:10:59.415Z,33.63
2018-12-17T20:13:37.887Z,37.13
2018-12-17T20:16:14.950Z,38.90
2018-12-17T20:18:54.183Z,36.27
2018-12-17T20:21:33.093Z,36.97
2018-12-17T20:24:12.806Z,37.43
2018-12-17T20:26:44.370Z,36.07
2018-12-17T20:29:18.813Z,33.37
2018-12-17T20:31:50.653Z,34.30
2018-12-17T20:34:29.461Z,32.97
2018-12-17T20:37:10.775Z,37.70
2018-12-17T20:39:46.346Z,35.67
2018-12-17T20:42:22.862Z,38.17
2018-12-17T20:44:57.925Z,33.50
2018-12-17T20:47:28.341Z,39.10
2018-12-17T20:50:04.670Z,38.00
2018-12-17T20:52:41.012Z,36.63
2018-12-17T20:55:09.905Z,35.40
2018-12-17T20:57:50.461Z,35.87
2018-12-17T21:00:26.908Z,40.63
2018-12-17T21:03:11.542Z,44.83
2018-12-17T21:05:45.928Z,46.13
2018-12-17T21:08:24.863Z,37.53
2018-12-17T21:11:04.671Z,40.60
2018-12-17T21:13:41.287Z,35.50
2018-12-17T21:16:19.472Z,34.77
2018-12-17T21:18:58.086Z,39.53
2018-12-17T21:21:32.029Z,39.20
2018-12-17T21:24:14.308Z,45.57
2018-12-17T21:26:52.385Z,42.33
2018-12-17T21:29:30.390Z,38.50
2018-12-17T21:32:13.260Z,42.53
2018-12-17T21:34:53.539Z,42.57
2018-12-17T21:37:31.827Z,37.73
2018-12-17T21:40:10.082Z,46.17
2018-12-17T21:42:48.281Z,45.13
2018-12-17T21:45:29.460Z,63.90
2018-12-17T21:48:04.966Z,49.50
2018-12-17T21:50:46.454Z,39.40
2018-12-17T21:53:25.986Z,42.80
2018-12-17T21:56:05.265Z,44.30
2018-12-17T21:58:45.395Z,40.20
2018-12-17T22:01:21.391Z,39.47
2018-12-17T22:04:00.041Z,34.07
2018-12-17T22:06:43.302Z,40.07
2018-12-17T22:09:17.461Z,42.80
2018-12-17T22:11:55.820Z,105.60
2018-12-17T22:14:34.610Z,108.30
2018-12-17T22:17:12.165Z,118.40
2018-12-17T22:19:41.137Z,157.10
2018-12-17T22:22:20.607Z,94.70
2018-12-17T22:24:57.712Z,73.53
2018-12-17T22:27:35.125Z,83.50
2018-12-17T22:30:11.959Z,78.07
2018-12-17T22:32:50.010Z,76.03
2018-12-17T22:35:28.390Z,51.20
2018-12-17T22:37:58.389Z,48.20
2018-12-17T22:40:35.998Z,43.47
2018-12-17T22:43:22.749Z,34.87
2018-12-17T22:45:59.719Z,37.40
2018-12-17T22:48:38.864Z,37.90
2018-12-17T22:51:07.657Z,30.47
2018-12-17T22:53:47.100Z,32.97
2018-12-17T22:56:24.240Z,30.80
2018-12-17T22:59:02.958Z,34.60
2018-12-17T23:01:41.441Z,35.00
2018-12-17T23:04:20.306Z,32.43
2018-12-17T23:07:00.416Z,31.37
2018-12-17T23:09:43.991Z,34.80
2018-12-17T23:12:28.916Z,38.93
2018-12-17T23:15:13.629Z,38.47
2018-12-17T23:17:51.988Z,37.73
2018-12-17T23:20:31.025Z,43.37
2018-12-17T23:23:09.817Z,39.93
2018-12-17T23:25:47.814Z,40.40
2018-12-17T23:28:25.788Z,40.83
2018-12-17T23:31:00.575Z,40.10
2018-12-17T23:33:35.431Z,40.67
2018-12-17T23:36:14.362Z,42.87
2018-12-17T23:38:52.876Z,41.80
2018-12-17T23:41:22.220Z,36.73
2018-12-17T23:44:04.656Z,35.07
2018-12-17T23:46:43.579Z,38.40
2018-12-17T23:49:12.078Z,36.47
2018-12-17T23:51:54.472Z,34.40
2018-12-17T23:54:32.798Z,39.97
2018-12-17T23:57:09.427Z,34.40
2018-12-17T23:59:43.590Z,37.30
